sensor_id;sensor_type;location;lat;lon;timestamp;pressure;altitude;pressure_sealevel;temperature;humidity
56737;BME280;42618;51.226;4.910;2022-08-27T00:00:15;49473.84;;;-146.94;73.55
56737;BME280;42618;51.226;4.910;2022-08-27T00:02:43;49511.72;;;-146.94;73.42
56737;BME280;42618;51.226;4.910;2022-08-27T00:05:11;49547.59;;;-146.94;73.55
56737;BME280;42618;51.226;4.910;2022-08-27T00:07:38;49527.66;;;-146.94;73.28
56737;BME280;42618;51.226;4.910;2022-08-27T00:10:07;49473.84;;;-146.94;73.03
56737;BME280;42618;51.226;4.910;2022-08-27T00:12:35;49517.69;;;-146.94;73.79
56737;BME280;42618;51.226;4.910;2022-08-27T00:15:04;49473.84;;;-146.94;73.64
56737;BME280;42618;51.226;4.910;2022-08-27T00:17:32;49539.63;;;-146.94;74.34
56737;BME280;42618;51.226;4.910;2022-08-27T00:19:58;49473.84;;;-146.94;74.26
56737;BME280;42618;51.226;4.910;2022-08-27T00:22:25;49529.66;;;-146.94;73.86
56737;BME280;42618;51.226;4.910;2022-08-27T00:24:52;49493.75;;;-146.94;74.76
56737;BME280;42618;51.226;4.910;2022-08-27T00:27:18;49503.72;;;-146.94;73.99
56737;BME280;42618;51.226;4.910;2022-08-27T00:29:46;49495.75;;;-146.94;74.91
56737;BME280;42618;51.226;4.910;2022-08-27T00:32:14;49543.59;;;-146.94;74.56
56737;BME280;42618;51.226;4.910;2022-08-27T00:34:41;49495.75;;;-146.94;75.11
56737;BME280;42618;51.226;4.910;2022-08-27T00:37:07;49507.72;;;-146.94;74.54
56737;BME280;42618;51.226;4.910;2022-08-27T00:39:34;49497.75;;;-146.94;75.23
56737;BME280;42618;51.226;4.910;2022-08-27T00:42:05;49537.63;;;-146.94;75.18
56737;BME280;42618;51.226;4.910;2022-08-27T00:44:32;49503.72;;;-146.94;75.19
56737;BME280;42618;51.226;4.910;2022-08-27T00:47:03;49523.66;;;-146.94;75.59
56737;BME280;42618;51.226;4.910;2022-08-27T00:49:44;49535.63;;;-146.94;75.05
56737;BME280;42618;51.226;4.910;2022-08-27T00:54:59;49519.69;;;-146.94;75.02
56737;BME280;42618;51.226;4.910;2022-08-27T00:57:28;49531.63;;;-146.94;74.85
56737;BME280;42618;51.226;4.910;2022-08-27T00:59:55;49503.72;;;-146.94;75.48
56737;BME280;42618;51.226;4.910;2022-08-27T01:02:22;49499.75;;;-146.94;75.86
56737;BME280;42618;51.226;4.910;2022-08-27T01:05:07;49509.72;;;-146.94;75.79
56737;BME280;42618;51.226;4.910;2022-08-27T01:07:38;49515.69;;;-146.94;76.21
56737;BME280;42618;51.226;4.910;2022-08-27T01:10:10;49513.69;;;-146.94;76.12
56737;BME280;42618;51.226;4.910;2022-08-27T01:12:37;49491.78;;;-146.94;76.73
56737;BME280;42618;51.226;4.910;2022-08-27T01:15:08;49507.72;;;-146.94;76.72
56737;BME280;42618;51.226;4.910;2022-08-27T01:17:41;49529.66;;;-146.94;76.43
56737;BME280;42618;51.226;4.910;2022-08-27T01:20:15;49531.63;;;-146.94;76.67
56737;BME280;42618;51.226;4.910;2022-08-27T01:22:52;49521.69;;;-146.94;77.94
56737;BME280;42618;51.226;4.910;2022-08-27T01:25:21;49541.59;;;-146.94;77.79
56737;BME280;42618;51.226;4.910;2022-08-27T01:27:49;49511.72;;;-146.94;78.96
56737;BME280;42618;51.226;4.910;2022-08-27T01:30:18;49535.63;;;-146.94;78.70
56737;BME280;42618;51.226;4.910;2022-08-27T01:32:45;49535.63;;;-146.94;79.71
56737;BME280;42618;51.226;4.910;2022-08-27T01:35:13;49497.75;;;-146.94;79.11
56737;BME280;42618;51.226;4.910;2022-08-27T01:37:43;49547.59;;;-146.94;80.28
56737;BME280;42618;51.226;4.910;2022-08-27T01:40:13;49531.63;;;-146.94;79.75
56737;BME280;42618;51.226;4.910;2022-08-27T01:42:44;49539.63;;;-146.94;80.37
56737;BME280;42618;51.226;4.910;2022-08-27T01:47:40;49553.56;;;-146.94;81.25
56737;BME280;42618;51.226;4.910;2022-08-27T01:50:11;49541.59;;;-146.94;81.35
56737;BME280;42618;51.226;4.910;2022-08-27T01:52:39;49519.69;;;-146.94;82.08
56737;BME280;42618;51.226;4.910;2022-08-27T01:55:07;49549.59;;;-146.94;81.33
56737;BME280;42618;51.226;4.910;2022-08-27T01:57:35;49555.56;;;-146.94;81.50
56737;BME280;42618;51.226;4.910;2022-08-27T02:00:09;49537.63;;;-146.94;81.71
56737;BME280;42618;51.226;4.910;2022-08-27T02:02:39;49535.63;;;-146.94;81.27
56737;BME280;42618;51.226;4.910;2022-08-27T02:05:05;49523.66;;;-146.94;81.77
56737;BME280;42618;51.226;4.910;2022-08-27T02:07:32;49531.63;;;-146.94;81.56
56737;BME280;42618;51.226;4.910;2022-08-27T02:09:59;49559.56;;;-146.94;81.16
56737;BME280;42618;51.226;4.910;2022-08-27T02:12:26;49487.78;;;-146.94;80.95
56737;BME280;42618;51.226;4.910;2022-08-27T02:14:52;49525.66;;;-146.94;81.10
56737;BME280;42618;51.226;4.910;2022-08-27T02:17:19;49521.69;;;-146.94;82.32
56737;BME280;42618;51.226;4.910;2022-08-27T02:19:46;49529.66;;;-146.94;82.55
56737;BME280;42618;51.226;4.910;2022-08-27T02:22:12;49543.59;;;-146.94;83.13
56737;BME280;42618;51.226;4.910;2022-08-27T02:24:39;49527.66;;;-146.94;82.38
56737;BME280;42618;51.226;4.910;2022-08-27T02:27:07;49525.66;;;-146.94;82.07
56737;BME280;42618;51.226;4.910;2022-08-27T02:29:34;49575.50;;;-146.94;81.71
56737;BME280;42618;51.226;4.910;2022-08-27T02:32:01;49523.66;;;-146.94;82.10
56737;BME280;42618;51.226;4.910;2022-08-27T02:34:28;49549.59;;;-146.94;82.42
56737;BME280;42618;51.226;4.910;2022-08-27T02:36:55;49531.63;;;-146.94;81.96
56737;BME280;42618;51.226;4.910;2022-08-27T02:39:22;49555.56;;;-146.94;83.68
56737;BME280;42618;51.226;4.910;2022-08-27T02:41:49;49535.63;;;-146.94;83.79
56737;BME280;42618;51.226;4.910;2022-08-27T02:44:16;49541.59;;;-146.94;83.13
56737;BME280;42618;51.226;4.910;2022-08-27T02:46:42;49539.63;;;-146.94;83.36
56737;BME280;42618;51.226;4.910;2022-08-27T02:49:09;49543.59;;;-146.94;83.07
56737;BME280;42618;51.226;4.910;2022-08-27T02:51:36;49509.72;;;-146.94;83.02
56737;BME280;42618;51.226;4.910;2022-08-27T02:54:04;49585.47;;;-146.94;83.29
56737;BME280;42618;51.226;4.910;2022-08-27T02:56:35;49527.66;;;-146.94;83.59
56737;BME280;42618;51.226;4.910;2022-08-27T02:59:02;49541.59;;;-146.94;83.79
56737;BME280;42618;51.226;4.910;2022-08-27T03:01:29;49557.56;;;-146.94;83.93
56737;BME280;42618;51.226;4.910;2022-08-27T03:03:56;49563.53;;;-146.94;83.80
56737;BME280;42618;51.226;4.910;2022-08-27T03:06:23;49557.56;;;-146.94;83.65
56737;BME280;42618;51.226;4.910;2022-08-27T03:08:49;49521.69;;;-146.94;83.86
56737;BME280;42618;51.226;4.910;2022-08-27T03:11:19;49551.56;;;-146.94;83.01
56737;BME280;42618;51.226;4.910;2022-08-27T03:13:48;49567.53;;;-146.94;83.65
56737;BME280;42618;51.226;4.910;2022-08-27T03:16:15;49545.59;;;-146.94;84.42
56737;BME280;42618;51.226;4.910;2022-08-27T03:18:43;49519.69;;;-146.94;85.41
56737;BME280;42618;51.226;4.910;2022-08-27T03:21:18;49527.66;;;-146.94;84.86
56737;BME280;42618;51.226;4.910;2022-08-27T03:23:46;49543.59;;;-146.94;85.08
56737;BME280;42618;51.226;4.910;2022-08-27T03:26:14;49557.56;;;-146.94;84.78
56737;BME280;42618;51.226;4.910;2022-08-27T03:28:41;49575.50;;;-146.94;84.17
56737;BME280;42618;51.226;4.910;2022-08-27T03:31:15;49531.63;;;-146.94;83.82
56737;BME280;42618;51.226;4.910;2022-08-27T03:33:42;49533.63;;;-146.94;83.26
56737;BME280;42618;51.226;4.910;2022-08-27T03:36:09;49539.63;;;-146.94;83.93
56737;BME280;42618;51.226;4.910;2022-08-27T03:38:36;49541.59;;;-146.94;84.24
56737;BME280;42618;51.226;4.910;2022-08-27T03:41:04;49523.66;;;-146.94;84.73
56737;BME280;42618;51.226;4.910;2022-08-27T03:43:31;49545.59;;;-146.94;84.87
56737;BME280;42618;51.226;4.910;2022-08-27T03:45:58;49555.56;;;-146.94;84.85
56737;BME280;42618;51.226;4.910;2022-08-27T03:48:29;49557.56;;;-146.94;84.54
56737;BME280;42618;51.226;4.910;2022-08-27T03:50:57;49563.53;;;-146.94;84.73
56737;BME280;42618;51.226;4.910;2022-08-27T03:53:23;49505.72;;;-146.94;84.30
56737;BME280;42618;51.226;4.910;2022-08-27T03:55:50;49571.50;;;-146.94;84.15
56737;BME280;42618;51.226;4.910;2022-08-27T03:58:17;49553.56;;;-146.94;85.58
56737;BME280;42618;51.226;4.910;2022-08-27T04:00:44;49565.53;;;-146.94;87.00
56737;BME280;42618;51.226;4.910;2022-08-27T04:03:12;49569.50;;;-146.94;87.14
56737;BME280;42618;51.226;4.910;2022-08-27T04:05:40;49567.53;;;-146.94;86.48
56737;BME280;42618;51.226;4.910;2022-08-27T04:08:11;49575.50;;;-146.94;86.82
56737;BME280;42618;51.226;4.910;2022-08-27T04:10:39;49563.53;;;-146.94;86.40
56737;BME280;42618;51.226;4.910;2022-08-27T04:13:06;49543.59;;;-146.94;86.95
56737;BME280;42618;51.226;4.910;2022-08-27T04:15:33;49521.69;;;-146.94;86.61
56737;BME280;42618;51.226;4.910;2022-08-27T04:18:05;49569.50;;;-146.94;86.26
56737;BME280;42618;51.226;4.910;2022-08-27T04:20:32;49567.53;;;-146.94;86.50
56737;BME280;42618;51.226;4.910;2022-08-27T04:23:01;49561.53;;;-146.94;87.09
56737;BME280;42618;51.226;4.910;2022-08-27T04:25:28;49539.63;;;-146.94;86.72
56737;BME280;42618;51.226;4.910;2022-08-27T04:27:55;49517.69;;;-146.94;86.79
56737;BME280;42618;51.226;4.910;2022-08-27T04:30:21;49555.56;;;-146.94;86.83
56737;BME280;42618;51.226;4.910;2022-08-27T04:32:48;49571.50;;;-146.94;86.67
56737;BME280;42618;51.226;4.910;2022-08-27T04:35:16;49535.63;;;-146.94;86.86
56737;BME280;42618;51.226;4.910;2022-08-27T04:37:43;49559.56;;;-146.94;86.52
56737;BME280;42618;51.226;4.910;2022-08-27T04:40:10;49555.56;;;-146.94;86.47
56737;BME280;42618;51.226;4.910;2022-08-27T04:42:36;49527.66;;;-146.94;86.76
56737;BME280;42618;51.226;4.910;2022-08-27T04:45:04;49555.56;;;-146.94;87.46
56737;BME280;42618;51.226;4.910;2022-08-27T04:47:31;49545.59;;;-146.94;88.27
56737;BME280;42618;51.226;4.910;2022-08-27T04:49:58;49563.53;;;-146.94;87.59
56737;BME280;42618;51.226;4.910;2022-08-27T04:52:25;49579.47;;;-146.94;86.99
56737;BME280;42618;51.226;4.910;2022-08-27T04:54:52;49559.56;;;-146.94;86.68
56737;BME280;42618;51.226;4.910;2022-08-27T04:57:19;49563.53;;;-146.94;86.21
56737;BME280;42618;51.226;4.910;2022-08-27T04:59:46;49565.53;;;-146.94;86.29
56737;BME280;42618;51.226;4.910;2022-08-27T05:02:13;49543.59;;;-146.94;86.39
56737;BME280;42618;51.226;4.910;2022-08-27T05:04:39;49543.59;;;-146.94;86.04
56737;BME280;42618;51.226;4.910;2022-08-27T05:07:08;49561.53;;;-146.94;85.52
56737;BME280;42618;51.226;4.910;2022-08-27T05:09:35;49565.53;;;-146.94;85.56
56737;BME280;42618;51.226;4.910;2022-08-27T05:12:02;49545.59;;;-146.94;85.69
56737;BME280;42618;51.226;4.910;2022-08-27T05:14:29;49555.56;;;-146.94;85.57
56737;BME280;42618;51.226;4.910;2022-08-27T05:16:58;49531.63;;;-146.94;85.67
56737;BME280;42618;51.226;4.910;2022-08-27T05:19:24;49541.59;;;-146.94;85.29
56737;BME280;42618;51.226;4.910;2022-08-27T05:21:52;49535.63;;;-146.94;85.99
56737;BME280;42618;51.226;4.910;2022-08-27T05:24:19;49543.59;;;-146.94;85.02
56737;BME280;42618;51.226;4.910;2022-08-27T05:26:46;49547.59;;;-146.94;85.34
56737;BME280;42618;51.226;4.910;2022-08-27T05:29:13;49587.47;;;-146.94;85.12
56737;BME280;42618;51.226;4.910;2022-08-27T05:31:40;49523.66;;;-146.94;84.70
56737;BME280;42618;51.226;4.910;2022-08-27T05:34:07;49559.56;;;-146.94;84.73
56737;BME280;42618;51.226;4.910;2022-08-27T05:36:42;49549.59;;;-146.94;84.30
56737;BME280;42618;51.226;4.910;2022-08-27T05:39:15;49535.63;;;-146.94;84.69
56737;BME280;42618;51.226;4.910;2022-08-27T05:41:42;49559.56;;;-146.94;84.68
56737;BME280;42618;51.226;4.910;2022-08-27T05:44:09;49527.66;;;-146.94;84.21
56737;BME280;42618;51.226;4.910;2022-08-27T05:46:56;49541.59;;;-146.94;84.48
56737;BME280;42618;51.226;4.910;2022-08-27T05:49:23;49567.53;;;-146.94;84.76
56737;BME280;42618;51.226;4.910;2022-08-27T05:51:49;49571.50;;;-146.94;85.34
56737;BME280;42618;51.226;4.910;2022-08-27T05:54:16;49575.50;;;-146.94;85.36
56737;BME280;42618;51.226;4.910;2022-08-27T05:56:47;49551.56;;;-146.94;84.62
56737;BME280;42618;51.226;4.910;2022-08-27T05:59:15;49559.56;;;-146.94;85.70
56737;BME280;42618;51.226;4.910;2022-08-27T06:02:02;49531.63;;;-146.94;85.23
56737;BME280;42618;51.226;4.910;2022-08-27T06:04:29;49537.63;;;-146.94;84.71
56737;BME280;42618;51.226;4.910;2022-08-27T06:06:56;49555.56;;;-146.94;84.30
56737;BME280;42618;51.226;4.910;2022-08-27T06:09:24;49559.56;;;-146.94;84.05
56737;BME280;42618;51.226;4.910;2022-08-27T06:11:52;49503.72;;;-146.94;84.50
56737;BME280;42618;51.226;4.910;2022-08-27T06:14:19;49555.56;;;-146.94;83.97
56737;BME280;42618;51.226;4.910;2022-08-27T06:16:46;49511.72;;;-146.94;83.88
56737;BME280;42618;51.226;4.910;2022-08-27T06:19:14;49559.56;;;-146.94;84.10
56737;BME280;42618;51.226;4.910;2022-08-27T06:21:41;49517.69;;;-146.94;84.41
56737;BME280;42618;51.226;4.910;2022-08-27T06:24:08;49527.66;;;-146.94;84.58
56737;BME280;42618;51.226;4.910;2022-08-27T06:26:39;49515.69;;;-146.94;84.31
56737;BME280;42618;51.226;4.910;2022-08-27T06:29:07;49555.56;;;-146.94;84.31
56737;BME280;42618;51.226;4.910;2022-08-27T06:31:35;49547.59;;;-146.94;84.52
56737;BME280;42618;51.226;4.910;2022-08-27T06:34:06;49531.63;;;-146.94;84.29
56737;BME280;42618;51.226;4.910;2022-08-27T06:36:36;49523.66;;;-146.94;84.83
56737;BME280;42618;51.226;4.910;2022-08-27T06:39:03;49539.63;;;-146.94;82.96
56737;BME280;42618;51.226;4.910;2022-08-27T06:41:32;49523.66;;;-146.94;82.21
56737;BME280;42618;51.226;4.910;2022-08-27T06:44:02;49563.53;;;-146.94;81.40
56737;BME280;42618;51.226;4.910;2022-08-27T06:46:29;49553.56;;;-146.94;81.49
56737;BME280;42618;51.226;4.910;2022-08-27T06:48:59;49531.63;;;-146.94;81.89
56737;BME280;42618;51.226;4.910;2022-08-27T06:51:28;49527.66;;;-146.94;81.64
56737;BME280;42618;51.226;4.910;2022-08-27T06:53:58;49511.72;;;-146.94;81.68
56737;BME280;42618;51.226;4.910;2022-08-27T06:56:25;49515.69;;;-146.94;81.80
56737;BME280;42618;51.226;4.910;2022-08-27T06:58:54;49575.50;;;-146.94;81.69
56737;BME280;42618;51.226;4.910;2022-08-27T07:01:29;49539.63;;;-146.94;81.75
56737;BME280;42618;51.226;4.910;2022-08-27T07:04:02;49535.63;;;-146.94;81.90
56737;BME280;42618;51.226;4.910;2022-08-27T07:06:31;49515.69;;;-146.94;81.88
56737;BME280;42618;51.226;4.910;2022-08-27T07:08:58;49535.63;;;-146.94;81.09
56737;BME280;42618;51.226;4.910;2022-08-27T07:11:27;49485.78;;;-146.94;80.04
56737;BME280;42618;51.226;4.910;2022-08-27T07:13:54;49547.59;;;-146.94;78.93
56737;BME280;42618;51.226;4.910;2022-08-27T07:16:23;49539.63;;;-146.94;78.63
56737;BME280;42618;51.226;4.910;2022-08-27T07:18:53;49497.75;;;-146.94;77.99
56737;BME280;42618;51.226;4.910;2022-08-27T07:21:21;49493.75;;;-146.94;77.77
56737;BME280;42618;51.226;4.910;2022-08-27T07:23:51;49531.63;;;-146.94;77.15
56737;BME280;42618;51.226;4.910;2022-08-27T07:26:18;49527.66;;;-146.94;77.02
56737;BME280;42618;51.226;4.910;2022-08-27T07:28:46;49479.81;;;-146.94;76.82
56737;BME280;42618;51.226;4.910;2022-08-27T07:31:17;49503.72;;;-146.94;76.26
56737;BME280;42618;51.226;4.910;2022-08-27T07:33:44;49519.69;;;-146.94;76.49
56737;BME280;42618;51.226;4.910;2022-08-27T07:36:19;49517.69;;;-146.94;75.86
56737;BME280;42618;51.226;4.910;2022-08-27T07:38:46;49511.72;;;-146.94;74.63
56737;BME280;42618;51.226;4.910;2022-08-27T07:41:22;49499.75;;;-146.94;74.23
56737;BME280;42618;51.226;4.910;2022-08-27T07:43:56;49519.69;;;-146.94;74.11
56737;BME280;42618;51.226;4.910;2022-08-27T07:46:43;49543.59;;;-146.94;73.75
56737;BME280;42618;51.226;4.910;2022-08-27T07:49:14;49527.66;;;-146.94;73.66
56737;BME280;42618;51.226;4.910;2022-08-27T07:51:41;49495.75;;;-146.94;73.69
56737;BME280;42618;51.226;4.910;2022-08-27T07:54:07;49511.72;;;-146.94;74.10
56737;BME280;42618;51.226;4.910;2022-08-27T07:56:34;49495.75;;;-146.94;73.08
56737;BME280;42618;51.226;4.910;2022-08-27T07:59:01;49503.72;;;-146.94;71.88
56737;BME280;42618;51.226;4.910;2022-08-27T08:01:28;49497.75;;;-146.94;70.62
56737;BME280;42618;51.226;4.910;2022-08-27T08:03:55;49477.81;;;-146.94;69.10
56737;BME280;42618;51.226;4.910;2022-08-27T08:06:22;49453.91;;;-146.94;68.52
56737;BME280;42618;51.226;4.910;2022-08-27T08:08:49;49501.75;;;-146.94;68.14
56737;BME280;42618;51.226;4.910;2022-08-27T08:11:16;49503.72;;;-146.94;67.95
56737;BME280;42618;51.226;4.910;2022-08-27T08:13:44;49467.84;;;-146.94;65.43
56737;BME280;42618;51.226;4.910;2022-08-27T08:16:12;49499.75;;;-146.94;65.54
56737;BME280;42618;51.226;4.910;2022-08-27T08:18:40;49475.81;;;-146.94;64.71
56737;BME280;42618;51.226;4.910;2022-08-27T08:21:10;49455.88;;;-146.94;65.96
56737;BME280;42618;51.226;4.910;2022-08-27T08:23:38;49459.88;;;-146.94;64.60
56737;BME280;42618;51.226;4.910;2022-08-27T08:26:05;49477.81;;;-146.94;62.27
56737;BME280;42618;51.226;4.910;2022-08-27T08:28:32;49459.88;;;-146.94;63.09
56737;BME280;42618;51.226;4.910;2022-08-27T08:30:59;49451.91;;;-146.94;62.59
56737;BME280;42618;51.226;4.910;2022-08-27T08:33:27;49435.97;;;-146.94;60.77
56737;BME280;42618;51.226;4.910;2022-08-27T08:36:09;49451.91;;;-146.94;60.23
56737;BME280;42618;51.226;4.910;2022-08-27T08:38:36;49475.81;;;-146.94;59.45
56737;BME280;42618;51.226;4.910;2022-08-27T08:41:04;49457.88;;;-146.94;59.56
56737;BME280;42618;51.226;4.910;2022-08-27T08:43:38;49473.84;;;-146.94;57.94
56737;BME280;42618;51.226;4.910;2022-08-27T08:46:18;49481.81;;;-146.94;58.18
56737;BME280;42618;51.226;4.910;2022-08-27T08:48:50;49408.06;;;-146.94;58.27
56737;BME280;42618;51.226;4.910;2022-08-27T08:51:28;49459.88;;;-146.94;56.27
56737;BME280;42618;51.226;4.910;2022-08-27T08:54:03;49445.94;;;-146.94;54.54
56737;BME280;42618;51.226;4.910;2022-08-27T08:56:41;49435.97;;;-146.94;53.09
56737;BME280;42618;51.226;4.910;2022-08-27T08:59:37;49447.91;;;-146.94;52.85
56737;BME280;42618;51.226;4.910;2022-08-27T09:02:06;49447.91;;;-146.94;52.67
56737;BME280;42618;51.226;4.910;2022-08-27T09:04:39;49455.88;;;-146.94;53.16
56737;BME280;42618;51.226;4.910;2022-08-27T09:07:08;49435.97;;;-146.94;55.10
56737;BME280;42618;51.226;4.910;2022-08-27T09:12:30;49463.88;;;-146.94;55.92
56737;BME280;42618;51.226;4.910;2022-08-27T09:17:31;49479.81;;;-146.94;57.44
56737;BME280;42618;51.226;4.910;2022-08-27T09:19:58;49465.84;;;-146.94;58.17
56737;BME280;42618;51.226;4.910;2022-08-27T09:23:10;49479.81;;;-146.94;59.15
56737;BME280;42618;51.226;4.910;2022-08-27T09:25:31;49455.88;;;-146.94;58.81
56737;BME280;42618;51.226;4.910;2022-08-27T09:28:02;49499.75;;;-146.94;58.61
56737;BME280;42618;51.226;4.910;2022-08-27T09:30:41;49439.94;;;-146.94;58.55
56737;BME280;42618;51.226;4.910;2022-08-27T09:33:08;49475.81;;;-146.94;58.07
56737;BME280;42618;51.226;4.910;2022-08-27T09:35:40;49475.81;;;-146.94;58.72
56737;BME280;42618;51.226;4.910;2022-08-27T09:38:07;49471.84;;;-146.94;59.45
56737;BME280;42618;51.226;4.910;2022-08-27T09:40:42;49463.88;;;-146.94;60.14
56737;BME280;42618;51.226;4.910;2022-08-27T09:45:51;49489.78;;;-146.94;59.68
56737;BME280;42618;51.226;4.910;2022-08-27T09:48:21;49461.88;;;-146.94;59.20
56737;BME280;42618;51.226;4.910;2022-08-27T09:50:53;49457.88;;;-146.94;59.19
56737;BME280;42618;51.226;4.910;2022-08-27T09:53:32;49437.94;;;-146.94;59.82
56737;BME280;42618;51.226;4.910;2022-08-27T09:56:05;49459.88;;;-146.94;59.41
56737;BME280;42618;51.226;4.910;2022-08-27T10:01:31;49437.94;;;-146.94;58.34
56737;BME280;42618;51.226;4.910;2022-08-27T10:04:14;49424.00;;;-146.94;58.27
56737;BME280;42618;51.226;4.910;2022-08-27T10:06:46;49473.84;;;-146.94;57.64
56737;BME280;42618;51.226;4.910;2022-08-27T10:09:19;49433.97;;;-146.94;57.90
56737;BME280;42618;51.226;4.910;2022-08-27T10:12:11;49457.88;;;-146.94;58.12
56737;BME280;42618;51.226;4.910;2022-08-27T10:14:47;49455.88;;;-146.94;57.80
56737;BME280;42618;51.226;4.910;2022-08-27T10:19:55;49455.88;;;-146.94;55.90
56737;BME280;42618;51.226;4.910;2022-08-27T10:25:36;49465.84;;;-146.94;53.83
56737;BME280;42618;51.226;4.910;2022-08-27T10:34:24;49447.91;;;-146.94;53.94
56737;BME280;42618;51.226;4.910;2022-08-27T10:36:59;49420.00;;;-146.94;55.30
56737;BME280;42618;51.226;4.910;2022-08-27T10:48:32;49412.03;;;-146.94;52.33
56737;BME280;42618;51.226;4.910;2022-08-27T10:54:09;49422.00;;;-146.94;52.24
56737;BME280;42618;51.226;4.910;2022-08-27T10:56:43;49386.13;;;-146.94;52.48
56737;BME280;42618;51.226;4.910;2022-08-27T10:59:25;49406.06;;;-146.94;52.35
56737;BME280;42618;51.226;4.910;2022-08-27T11:04:43;49416.03;;;-146.94;52.24
56737;BME280;42618;51.226;4.910;2022-08-27T11:07:39;49431.97;;;-146.94;51.24
56737;BME280;42618;51.226;4.910;2022-08-27T11:10:35;49431.97;;;-146.94;49.57
56737;BME280;42618;51.226;4.910;2022-08-27T11:13:32;49420.00;;;-146.94;50.23
56737;BME280;42618;51.226;4.910;2022-08-27T11:16:11;49431.97;;;-146.94;50.86
56737;BME280;42618;51.226;4.910;2022-08-27T11:18:45;49416.03;;;-146.94;50.99
56737;BME280;42618;51.226;4.910;2022-08-27T11:23:57;49400.06;;;-146.94;49.83
56737;BME280;42618;51.226;4.910;2022-08-27T11:26:30;49427.97;;;-146.94;49.08
56737;BME280;42618;51.226;4.910;2022-08-27T11:29:30;49404.06;;;-146.94;49.74
56737;BME280;42618;51.226;4.910;2022-08-27T11:31:58;49400.06;;;-146.94;48.42
56737;BME280;42618;51.226;4.910;2022-08-27T11:34:42;49382.13;;;-146.94;46.49
56737;BME280;42618;51.226;4.910;2022-08-27T11:42:53;49374.16;;;-146.94;42.95
56737;BME280;42618;51.226;4.910;2022-08-27T11:45:31;49412.03;;;-146.94;43.29
56737;BME280;42618;51.226;4.910;2022-08-27T11:48:31;49410.03;;;-146.94;44.27
56737;BME280;42618;51.226;4.910;2022-08-27T11:51:05;49414.03;;;-146.94;44.88
56737;BME280;42618;51.226;4.910;2022-08-27T11:53:35;49420.00;;;-146.94;45.60
56737;BME280;42618;51.226;4.910;2022-08-27T11:59:17;49424.00;;;-146.94;47.45
56737;BME280;42618;51.226;4.910;2022-08-27T12:01:46;49457.88;;;-146.94;48.12
56737;BME280;42618;51.226;4.910;2022-08-27T12:18:26;49426.00;;;-146.94;47.87
56737;BME280;42618;51.226;4.910;2022-08-27T12:21:17;49380.13;;;-146.94;46.56
56737;BME280;42618;51.226;4.910;2022-08-27T12:24:09;49441.94;;;-146.94;45.57
56737;BME280;42618;51.226;4.910;2022-08-27T12:26:41;49396.09;;;-146.94;44.38
56737;BME280;42618;51.226;4.910;2022-08-27T12:29:26;49412.03;;;-146.94;45.21
56737;BME280;42618;51.226;4.910;2022-08-27T12:32:26;49404.06;;;-146.94;45.12
56737;BME280;42618;51.226;4.910;2022-08-27T12:35:14;49394.09;;;-146.94;44.97
56737;BME280;42618;51.226;4.910;2022-08-27T12:42:46;49376.16;;;-146.94;43.83
56737;BME280;42618;51.226;4.910;2022-08-27T12:45:23;49380.13;;;-146.94;43.68
56737;BME280;42618;51.226;4.910;2022-08-27T12:47:52;49376.16;;;-146.94;43.26
56737;BME280;42618;51.226;4.910;2022-08-27T12:50:25;49364.19;;;-146.94;41.80
56737;BME280;42618;51.226;4.910;2022-08-27T12:55:59;49360.22;;;-146.94;42.74
56737;BME280;42618;51.226;4.910;2022-08-27T12:58:37;49390.09;;;-146.94;42.84
56737;BME280;42618;51.226;4.910;2022-08-27T13:03:51;49396.09;;;-146.94;43.78
56737;BME280;42618;51.226;4.910;2022-08-27T13:06:42;49420.00;;;-146.94;44.10
56737;BME280;42618;51.226;4.910;2022-08-27T13:09:09;49396.09;;;-146.94;43.73
56737;BME280;42618;51.226;4.910;2022-08-27T13:11:46;49400.06;;;-146.94;44.43
56737;BME280;42618;51.226;4.910;2022-08-27T13:14:16;49404.06;;;-146.94;43.87
56737;BME280;42618;51.226;4.910;2022-08-27T13:17:17;49400.06;;;-146.94;44.40
56737;BME280;42618;51.226;4.910;2022-08-27T13:19:54;49420.00;;;-146.94;43.95
56737;BME280;42618;51.226;4.910;2022-08-27T13:22:28;49364.19;;;-146.94;44.20
56737;BME280;42618;51.226;4.910;2022-08-27T13:24:57;49388.13;;;-146.94;43.76
56737;BME280;42618;51.226;4.910;2022-08-27T13:27:33;49418.00;;;-146.94;43.78
56737;BME280;42618;51.226;4.910;2022-08-27T13:30:05;49396.09;;;-146.94;43.74
56737;BME280;42618;51.226;4.910;2022-08-27T13:32:33;49406.06;;;-146.94;43.45
56737;BME280;42618;51.226;4.910;2022-08-27T13:35:00;49422.00;;;-146.94;43.10
56737;BME280;42618;51.226;4.910;2022-08-27T13:37:34;49406.06;;;-146.94;43.13
56737;BME280;42618;51.226;4.910;2022-08-27T13:40:01;49388.13;;;-146.94;42.91
56737;BME280;42618;51.226;4.910;2022-08-27T13:42:28;49376.16;;;-146.94;42.81
56737;BME280;42618;51.226;4.910;2022-08-27T13:45:01;49374.16;;;-146.94;42.92
56737;BME280;42618;51.226;4.910;2022-08-27T13:47:28;49364.19;;;-146.94;42.31
56737;BME280;42618;51.226;4.910;2022-08-27T13:50:09;49358.22;;;-146.94;41.58
56737;BME280;42618;51.226;4.910;2022-08-27T13:52:39;49370.19;;;-146.94;41.04
56737;BME280;42618;51.226;4.910;2022-08-27T13:55:27;49344.25;;;-146.94;40.59
56737;BME280;42618;51.226;4.910;2022-08-27T13:57:54;49356.22;;;-146.94;39.24
56737;BME280;42618;51.226;4.910;2022-08-27T14:00:30;49388.13;;;-146.94;39.04
56737;BME280;42618;51.226;4.910;2022-08-27T14:02:58;49350.25;;;-146.94;38.80
56737;BME280;42618;51.226;4.910;2022-08-27T14:05:29;49334.28;;;-146.94;38.90
56737;BME280;42618;51.226;4.910;2022-08-27T14:08:17;49348.25;;;-146.94;39.07
56737;BME280;42618;51.226;4.910;2022-08-27T14:10:57;49398.09;;;-146.94;39.04
56737;BME280;42618;51.226;4.910;2022-08-27T14:13:25;49380.13;;;-146.94;39.94
56737;BME280;42618;51.226;4.910;2022-08-27T14:15:56;49410.03;;;-146.94;40.87
56737;BME280;42618;51.226;4.910;2022-08-27T14:18:31;49382.13;;;-146.94;41.42